Time;durP1;ratioP1;P1;durP2;ratioP2;P2;SDS_P1;SDS_P2;PMS_P1;PMS_P2;Temp;Humidity;BMP_temperature;BMP_pressure;BME280_temperature;BME280_humidity;BME280_pressure;Samples;Min_cycle;Max_cycle;Signal;HPM_P1;HPM_P2
2021/05/05 00:01:13;;;;;;;11.50;1.80;;;7.60;99.90;;;;;;5910728;39;20073;-74
2021/05/05 00:05:18;;;;;;;9.30;1.70;;;7.60;99.90;;;;;;5912010;39;20056;-74
2021/05/05 00:09:22;;;;;;;13.23;1.98;;;7.60;99.90;;;;;;5912423;40;20305;-77
2021/05/05 00:13:26;;;;;;;12.55;2.13;;;7.70;99.90;;;;;;5915793;40;20439;-76
2021/05/05 00:17:30;;;;;;;8.35;2.10;;;7.40;99.90;;;;;;5910997;40;20093;-75
2021/05/05 00:21:37;;;;;;;10.50;2.10;;;7.60;99.90;;;;;;5912664;40;20310;-75
2021/05/05 00:25:41;;;;;;;9.38;1.85;;;7.60;99.90;;;;;;5909449;39;20096;-75
2021/05/05 00:29:45;;;;;;;9.98;1.92;;;7.70;99.90;;;;;;5912519;40;20048;-74
2021/05/05 00:33:49;;;;;;;10.77;2.05;;;7.60;99.90;;;;;;5909226;40;20068;-74
2021/05/05 00:37:53;;;;;;;12.07;2.67;;;7.50;99.90;;;;;;5917115;39;20072;-73
2021/05/05 00:42:03;;;;;;;7.50;1.42;;;7.70;99.90;;;;;;5912480;39;20053;-74
2021/05/05 00:46:07;;;;;;;11.98;2.40;;;7.70;99.90;;;;;;5910711;39;20057;-73
2021/05/05 00:50:17;;;;;;;10.32;2.40;;;7.60;99.90;;;;;;5907978;40;20320;-72
2021/05/05 00:54:26;;;;;;;13.85;2.17;;;7.60;99.90;;;;;;5911291;39;20435;-73
2021/05/05 00:58:33;;;;;;;18.60;3.28;;;7.30;99.90;;;;;;5915599;39;20055;-71
2021/05/05 01:02:36;;;;;;;10.77;2.45;;;7.90;99.90;;;;;;5911904;39;20057;-72
2021/05/05 01:06:43;;;;;;;15.75;2.53;;;7.50;99.90;;;;;;5911933;40;20100;-72
2021/05/05 01:10:49;;;;;;;7.68;2.10;;;7.60;99.90;;;;;;5910819;39;21094;-73
2021/05/05 01:14:57;;;;;;;10.57;2.08;;;7.60;99.90;;;;;;5911096;39;20041;-74
2021/05/05 01:19:03;;;;;;;9.15;1.60;;;7.60;99.90;;;;;;5921138;39;20056;-74
2021/05/05 01:23:13;;;;;;;8.25;1.92;;;7.60;99.90;;;;;;5910780;40;20087;-73
2021/05/05 01:27:18;;;;;;;5.35;1.45;;;7.50;99.90;;;;;;5911474;40;20055;-74
2021/05/05 01:31:23;;;;;;;4.63;1.02;;;7.50;99.90;;;;;;5910998;40;20444;-73
2021/05/05 01:35:28;;;;;;;4.13;1.23;;;7.40;99.90;;;;;;5909935;39;20251;-73
2021/05/05 01:39:35;;;;;;;6.50;1.40;;;7.30;99.90;;;;;;5913036;40;20353;-74
2021/05/05 01:43:40;;;;;;;8.15;1.63;;;7.30;99.90;;;;;;5914531;39;20063;-73
2021/05/05 01:47:44;;;;;;;11.68;1.58;;;7.20;99.90;;;;;;5914041;39;20084;-74
2021/05/05 01:51:53;;;;;;;13.93;2.25;;;7.30;99.90;;;;;;5906046;40;20056;-73
2021/05/05 01:56:00;;;;;;;15.20;2.42;;;7.30;99.90;;;;;;5911676;39;20061;-73
2021/05/05 02:00:25;;;;;;;6.65;0.98;;;7.20;99.90;;;;;;5914085;39;20041;-73
2021/05/05 02:04:41;;;;;;;7.40;1.60;;;7.30;99.90;;;;;;5909176;39;20065;-72
2021/05/05 02:08:58;;;;;;;6.50;1.40;;;7.20;99.90;;;;;;5912609;39;20089;-73
2021/05/05 02:13:06;;;;;;;5.55;1.20;;;7.20;99.90;;;;;;5910314;40;20433;-73
2021/05/05 02:17:14;;;;;;;10.75;1.52;;;7.30;99.90;;;;;;5911607;39;20099;-73
2021/05/05 02:21:19;;;;;;;8.77;1.10;;;7.30;99.90;;;;;;5916649;40;20424;-73
2021/05/05 02:25:24;;;;;;;5.60;1.02;;;7.20;99.90;;;;;;5909635;40;20052;-74
2021/05/05 02:29:29;;;;;;;9.80;1.70;;;7.20;99.90;;;;;;5903635;40;20075;-74
2021/05/05 02:33:52;;;;;;;8.13;1.45;;;7.20;99.90;;;;;;5914030;39;20311;-74
2021/05/05 02:38:00;;;;;;;7.38;1.27;;;7.10;99.90;;;;;;5902665;39;20128;-73
2021/05/05 02:42:17;;;;;;;13.70;2.08;;;7.10;99.90;;;;;;5913283;39;20037;-73
2021/05/05 02:46:22;;;;;;;16.85;2.78;;;7.10;99.90;;;;;;5910955;40;20452;-73
2021/05/05 02:50:29;;;;;;;13.88;2.28;;;;;;;;;;5911371;39;20097;-72
2021/05/05 02:54:35;;;;;;;8.82;1.40;;;7.00;99.90;;;;;;5912225;39;20065;-73
2021/05/05 02:58:42;;;;;;;23.08;3.83;;;7.00;99.90;;;;;;5912669;39;20443;-72
2021/05/05 03:02:47;;;;;;;13.20;1.70;;;7.00;99.90;;;;;;5915713;39;20052;-72
2021/05/05 03:06:51;;;;;;;11.23;2.00;;;7.00;99.90;;;;;;5913148;40;20060;-72
2021/05/05 03:10:55;;;;;;;11.77;1.70;;;6.90;99.90;;;;;;5912520;39;20041;-73
2021/05/05 03:15:00;;;;;;;6.65;1.50;;;6.80;99.90;;;;;;5912058;40;20085;-72
2021/05/05 03:19:06;;;;;;;14.20;1.58;;;6.90;99.90;;;;;;5912052;39;20118;-72
2021/05/05 03:23:10;;;;;;;11.60;1.38;;;6.90;99.90;;;;;;5914035;39;20064;-73
2021/05/05 03:27:14;;;;;;;7.25;1.73;;;6.80;99.90;;;;;;5911344;40;20065;-72
2021/05/05 03:31:19;;;;;;;7.30;1.00;;;6.80;99.90;;;;;;5910411;39;20309;-72
2021/05/05 03:35:23;;;;;;;8.35;1.58;;;6.80;99.90;;;;;;5907911;39;20483;-72
2021/05/05 03:39:27;;;;;;;14.60;3.17;;;6.80;99.90;;;;;;5909344;40;20080;-72
2021/05/05 03:43:34;;;;;;;6.10;1.42;;;6.90;99.90;;;;;;5908401;39;20052;-72
2021/05/05 03:47:39;;;;;;;8.38;1.45;;;6.70;99.90;;;;;;5900082;39;20139;-75
2021/05/05 03:51:45;;;;;;;9.25;1.38;;;6.70;99.90;;;;;;5911689;39;20060;-74
2021/05/05 03:55:50;;;;;;;6.65;1.23;;;6.80;99.90;;;;;;5902245;39;20131;-75
2021/05/05 03:59:56;;;;;;;8.80;1.42;;;6.90;99.90;;;;;;5912912;39;20037;-75
2021/05/05 04:04:00;;;;;;;13.73;1.35;;;6.90;99.90;;;;;;5908856;40;20093;-74
2021/05/05 04:08:09;;;;;;;12.35;1.40;;;6.80;99.90;;;;;;5905560;40;20055;-75
2021/05/05 04:12:13;;;;;;;10.70;1.50;;;6.80;99.90;;;;;;5918534;39;20052;-73
2021/05/05 04:16:20;;;;;;;8.65;1.27;;;6.90;99.90;;;;;;5915971;40;20053;-73
2021/05/05 04:20:42;;;;;;;13.93;2.45;;;6.80;99.90;;;;;;5910772;39;20045;-73
2021/05/05 04:25:04;;;;;;;10.17;1.50;;;6.80;99.90;;;;;;5909189;40;20543;-76
2021/05/05 04:29:08;;;;;;;9.73;1.30;;;7.00;99.90;;;;;;5911315;39;20721;-73
2021/05/05 04:33:13;;;;;;;12.90;2.17;;;;;;;;;;5909838;39;21073;-73
2021/05/05 04:37:17;;;;;;;9.40;1.52;;;7.00;99.90;;;;;;5909184;40;20187;-73
2021/05/05 04:41:29;;;;;;;8.35;1.27;;;7.00;99.90;;;;;;5905244;40;20371;-73
2021/05/05 04:45:33;;;;;;;12.93;2.28;;;;;;;;;;5915336;40;20041;-72
2021/05/05 04:49:37;;;;;;;11.98;2.45;;;7.00;99.90;;;;;;5908097;39;20053;-72
2021/05/05 04:53:41;;;;;;;9.15;1.27;;;7.00;99.90;;;;;;5898036;39;20330;-72
2021/05/05 04:57:46;;;;;;;4.35;0.85;;;6.90;99.90;;;;;;5898299;40;20123;-73
2021/05/05 05:01:50;;;;;;;6.90;0.80;;;6.90;99.90;;;;;;5907221;39;20053;-75
2021/05/05 05:05:51;;;;;;;7.87;1.40;;;7.00;99.90;;;;;;5910829;39;20076;-74
2021/05/05 05:09:57;;;;;;;6.13;1.00;;;6.40;99.90;;;;;;5907996;40;20555;-69
2021/05/05 05:14:04;;;;;;;6.65;0.75;;;7.10;99.90;;;;;;5905898;40;20065;-69
2021/05/05 05:18:08;;;;;;;1.92;0.52;;;7.20;99.90;;;;;;5904128;39;20064;-69
2021/05/05 05:22:17;;;;;;;4.60;0.98;;;7.20;99.90;;;;;;5906524;39;20051;-68
2021/05/05 05:26:24;;;;;;;9.23;1.58;;;7.30;99.90;;;;;;5906594;39;20065;-69
2021/05/05 05:30:28;;;;;;;9.25;1.30;;;7.30;99.90;;;;;;5906220;39;20413;-69
2021/05/05 05:34:40;;;;;;;12.63;1.80;;;;;;;;;;5904917;39;20065;-69
2021/05/05 05:38:46;;;;;;;9.25;1.77;;;7.50;99.90;;;;;;5904131;39;20143;-68
2021/05/05 05:42:51;;;;;;;15.10;2.08;;;7.40;99.90;;;;;;5906162;40;20410;-68
2021/05/05 05:46:58;;;;;;;10.82;2.38;;;;;;;;;;5904816;40;20061;-68
2021/05/05 05:51:03;;;;;;;9.40;2.05;;;7.50;99.90;;;;;;5904923;40;20057;-69
2021/05/05 05:55:09;;;;;;;6.13;1.88;;;7.70;99.90;;;;;;5905129;40;20344;-68
2021/05/05 05:59:14;;;;;;;10.00;1.70;;;7.70;99.90;;;;;;5903455;39;20069;-69
2021/05/05 06:03:23;;;;;;;10.80;1.63;;;7.70;99.90;;;;;;5902701;39;20292;-69
2021/05/05 06:07:27;;;;;;;12.60;2.33;;;7.70;99.90;;;;;;5903977;40;20062;-69
2021/05/05 06:11:33;;;;;;;8.65;2.17;;;7.80;99.90;;;;;;5904807;39;20055;-68
2021/05/05 06:15:38;;;;;;;8.82;2.30;;;7.80;99.90;;;;;;5902202;39;20445;-69
2021/05/05 06:19:49;;;;;;;10.60;2.50;;;8.00;99.90;;;;;;5903512;39;20077;-68
2021/05/05 06:23:53;;;;;;;13.38;2.92;;;8.20;99.90;;;;;;5911749;39;20049;-69
2021/05/05 06:27:57;;;;;;;12.20;2.47;;;8.20;99.90;;;;;;5908810;39;20048;-69
2021/05/05 06:32:02;;;;;;;5.60;2.25;;;8.20;99.90;;;;;;5908451;40;20057;-69
2021/05/05 06:36:06;;;;;;;5.43;1.83;;;8.20;99.90;;;;;;5906654;39;20060;-69
2021/05/05 06:40:15;;;;;;;6.88;2.13;;;8.30;99.90;;;;;;5910783;39;20545;-69
2021/05/05 06:44:22;;;;;;;5.82;1.77;;;8.30;99.90;;;;;;5902419;39;20178;-69
2021/05/05 06:48:29;;;;;;;5.65;1.30;;;8.10;99.90;;;;;;5908344;40;20049;-69
2021/05/05 06:52:34;;;;;;;6.82;1.00;;;8.00;99.90;;;;;;5907375;40;20065;-69
2021/05/05 06:56:38;;;;;;;5.32;1.00;;;8.00;99.90;;;;;;5907888;39;20056;-69
2021/05/05 07:00:45;;;;;;;5.70;1.08;;;8.00;99.90;;;;;;5909404;40;20351;-68
2021/05/05 07:04:52;;;;;;;4.57;0.80;;;7.90;99.90;;;;;;5903848;39;20048;-68
2021/05/05 07:08:56;;;;;;;6.07;0.82;;;7.90;99.90;;;;;;5907893;40;20348;-68
2021/05/05 07:13:03;;;;;;;5.15;0.57;;;;;;;;;;5907465;40;20197;-68
2021/05/05 07:17:12;;;;;;;2.90;0.73;;;7.80;99.90;;;;;;5906314;40;20060;-68
2021/05/05 07:21:20;;;;;;;4.70;1.10;;;;;;;;;;5914715;39;20053;-69
2021/05/05 07:25:26;;;;;;;3.60;0.52;;;7.70;99.90;;;;;;5908545;39;20063;-68
2021/05/05 07:29:35;;;;;;;7.78;1.05;;;7.70;99.90;;;;;;5908916;39;20048;-68
2021/05/05 07:33:45;;;;;;;7.65;0.90;;;7.70;99.90;;;;;;5909601;39;20048;-68
2021/05/05 07:46:14;;;;;;;11.30;1.20;;;7.90;99.90;;;;;;5910927;39;20079;-69
2021/05/05 07:50:19;;;;;;;9.90;1.25;;;;;;;;;;5907507;40;20053;-68
2021/05/05 07:54:21;;;;;;;3.05;0.70;;;7.80;99.90;;;;;;5904788;39;20451;-68
2021/05/05 07:58:25;;;;;;;7.15;0.95;;;7.80;99.90;;;;;;5911853;39;20746;-68
2021/05/05 08:02:26;;;;;;;7.78;0.90;;;7.80;99.90;;;;;;5907462;39;20401;-68
2021/05/05 08:06:35;;;;;;;7.30;1.00;;;7.80;99.90;;;;;;5906359;40;20065;-68
2021/05/05 08:10:40;;;;;;;6.75;0.85;;;7.90;99.90;;;;;;5907766;39;20054;-71
2021/05/05 08:14:46;;;;;;;11.02;1.10;;;7.70;99.90;;;;;;5905994;39;20057;-72
2021/05/05 08:18:50;;;;;;;7.63;1.70;;;7.60;99.90;;;;;;5910330;40;20048;-72
2021/05/05 08:22:55;;;;;;;7.28;0.88;;;7.70;99.90;;;;;;5906349;39;20065;-70
2021/05/05 08:27:00;;;;;;;7.15;1.13;;;;;;;;;;5909946;39;20040;-71
2021/05/05 08:31:05;;;;;;;4.20;0.82;;;8.00;99.90;;;;;;5905815;40;20092;-71
2021/05/05 08:35:10;;;;;;;6.03;0.90;;;8.10;99.90;;;;;;5907525;39;20075;-71
2021/05/05 08:39:14;;;;;;;5.88;1.13;;;8.00;99.90;;;;;;5909766;40;20056;-71
2021/05/05 08:43:19;;;;;;;6.07;0.75;;;8.00;99.90;;;;;;5908263;39;20089;-71
2021/05/05 08:47:26;;;;;;;4.50;0.73;;;8.40;99.90;;;;;;5906974;39;20053;-71
2021/05/05 08:51:35;;;;;;;5.95;0.77;;;7.80;99.90;;;;;;5905700;40;20052;-69
2021/05/05 08:55:42;;;;;;;6.65;0.90;;;;;;;;;;5905223;39;20072;-71
2021/05/05 08:59:47;;;;;;;5.82;0.68;;;7.90;99.90;;;;;;5907007;39;20385;-71
2021/05/05 09:03:53;;;;;;;2.97;0.63;;;7.90;99.90;;;;;;5906073;39;20061;-71
2021/05/05 09:08:09;;;;;;;5.03;0.80;;;7.80;99.90;;;;;;5903617;39;20124;-71
2021/05/05 09:12:25;;;;;;;3.83;0.70;;;8.50;99.90;;;;;;5906861;39;20045;-71
2021/05/05 09:16:32;;;;;;;4.10;0.77;;;7.70;99.90;;;;;;5905417;39;20041;-71
2021/05/05 09:20:37;;;;;;;4.68;0.88;;;7.60;99.90;;;;;;5902530;39;20138;-71
2021/05/05 09:24:41;;;;;;;7.13;0.60;;;7.50;99.90;;;;;;5907170;40;20102;-71
2021/05/05 09:28:51;;;;;;;7.22;0.70;;;7.40;99.90;;;;;;5906292;39;20150;-71
2021/05/05 09:32:58;;;;;;;7.82;0.80;;;7.60;99.90;;;;;;5905217;40;20085;-71
2021/05/05 09:37:12;;;;;;;10.65;1.48;;;7.40;99.90;;;;;;5907651;39;20063;-71
2021/05/05 09:41:24;;;;;;;3.03;1.10;;;7.40;99.90;;;;;;5911519;39;20076;-69
2021/05/05 09:45:31;;;;;;;4.28;0.60;;;7.40;99.90;;;;;;5904273;40;20069;-72
2021/05/05 09:49:41;;;;;;;3.38;0.50;;;7.40;99.90;;;;;;5906068;39;20109;-71
2021/05/05 09:53:55;;;;;;;2.70;0.65;;;7.40;99.90;;;;;;5906373;39;20061;-72
2021/05/05 09:58:28;;;;;;;7.85;0.85;;;7.50;99.90;;;;;;5906991;40;20339;-72
2021/05/05 10:02:47;;;;;;;6.47;1.05;;;7.50;99.90;;;;;;5908027;39;20069;-71
2021/05/05 10:06:57;;;;;;;2.90;0.63;;;7.50;99.90;;;;;;5907534;39;20049;-71
2021/05/05 10:11:02;;;;;;;7.03;0.98;;;7.40;99.90;;;;;;5908257;39;20403;-71
2021/05/05 10:15:07;;;;;;;5.55;1.20;;;;;;;;;;5907841;39;20062;-71
2021/05/05 10:19:15;;;;;;;2.20;0.60;;;7.50;99.90;;;;;;5904206;39;20100;-72
2021/05/05 10:23:20;;;;;;;5.55;0.60;;;7.50;99.90;;;;;;5905235;40;20423;-70
2021/05/05 10:27:25;;;;;;;4.07;0.50;;;7.60;99.90;;;;;;5906821;39;20065;-70
2021/05/05 10:31:30;;;;;;;3.47;0.60;;;7.70;99.90;;;;;;5907418;39;20420;-71
2021/05/05 10:35:36;;;;;;;3.42;0.50;;;7.70;99.90;;;;;;5912633;39;20437;-73
2021/05/05 10:39:45;;;;;;;3.58;0.50;;;7.80;99.90;;;;;;5908868;39;20157;-73
2021/05/05 10:43:58;;;;;;;3.35;1.00;;;7.60;99.90;;;;;;5897288;39;20052;-71
2021/05/05 10:48:02;;;;;;;5.10;0.80;;;;;;;;;;5908068;39;20344;-72
2021/05/05 10:52:07;;;;;;;4.65;1.05;;;7.40;99.90;;;;;;5904083;39;20435;-71
2021/05/05 10:56:29;;;;;;;2.22;0.63;;;7.40;99.90;;;;;;5904585;39;20214;-71
2021/05/05 11:00:52;;;;;;;8.02;1.08;;;7.20;99.90;;;;;;5896050;39;20051;-71
2021/05/05 11:05:09;;;;;;;6.30;0.93;;;7.40;99.90;;;;;;5908219;39;20098;-71
2021/05/05 11:09:14;;;;;;;4.88;1.00;;;7.30;99.90;;;;;;5910815;39;20049;-71
2021/05/05 11:13:24;;;;;;;5.00;0.80;;;7.20;99.90;;;;;;5905907;39;20429;-70
2021/05/05 11:17:28;;;;;;;14.18;1.67;;;7.20;99.90;;;;;;5896710;39;20055;-70
2021/05/05 11:21:33;;;;;;;8.68;1.38;;;;;;;;;;5903352;39;20051;-70
2021/05/05 11:25:40;;;;;;;17.15;2.03;;;7.10;99.90;;;;;;5908798;39;20121;-71
2021/05/05 11:29:50;;;;;;;15.82;3.15;;;7.40;99.90;;;;;;5904443;39;20100;-70
2021/05/05 11:34:00;;;;;;;19.52;2.15;;;7.30;99.90;;;;;;5904700;39;20064;-70
2021/05/05 11:38:19;;;;;;;15.82;1.80;;;7.40;99.90;;;;;;5903377;40;20556;-70
2021/05/05 11:42:32;;;;;;;16.85;2.13;;;7.40;99.90;;;;;;5907636;39;20063;-70
2021/05/05 11:46:56;;;;;;;20.80;3.10;;;7.40;99.90;;;;;;5908659;39;20064;-70
2021/05/05 11:51:15;;;;;;;27.98;1.95;;;7.50;99.90;;;;;;5902873;39;20496;-70
2021/05/05 11:55:26;;;;;;;20.08;2.50;;;7.40;99.90;;;;;;5893112;40;20127;-70
2021/05/05 11:59:30;;;;;;;23.70;2.40;;;7.60;99.90;;;;;;5903943;40;20049;-70
2021/05/05 12:03:37;;;;;;;22.35;2.38;;;7.60;99.90;;;;;;5904960;39;20060;-70
2021/05/05 12:07:41;;;;;;;15.98;2.53;;;7.80;99.90;;;;;;5907587;40;20045;-70
2021/05/05 12:11:45;;;;;;;22.25;2.58;;;8.00;99.90;;;;;;5902561;40;20345;-70
2021/05/05 12:16:04;;;;;;;19.30;3.00;;;7.60;99.90;;;;;;5905138;40;20055;-70
2021/05/05 12:20:13;;;;;;;18.85;2.75;;;8.00;99.90;;;;;;5913671;39;20365;-70
2021/05/05 12:24:17;;;;;;;19.20;2.70;;;;;;;;;;5904285;40;20055;-70
2021/05/05 12:28:21;;;;;;;22.95;3.20;;;8.00;99.90;;;;;;5908985;40;20452;-69
2021/05/05 12:32:50;;;;;;;15.43;2.65;;;8.50;99.90;;;;;;5902121;39;20045;-69
2021/05/05 12:36:57;;;;;;;16.92;3.00;;;8.40;99.90;;;;;;5902909;40;20049;-70
2021/05/05 12:41:12;;;;;;;13.50;2.67;;;8.30;99.90;;;;;;5903701;40;20698;-69
2021/05/05 12:45:22;;;;;;;18.25;3.65;;;8.40;99.90;;;;;;5933384;23;20044;-71
2021/05/05 12:49:36;;;;;;;17.23;2.30;;;8.40;99.90;;;;;;5921640;40;20038;-70
2021/05/05 12:53:54;;;;;;;15.32;2.58;;;8.60;99.90;;;;;;5927785;40;20037;-72
2021/05/05 12:58:18;;;;;;;12.82;2.10;;;9.00;99.90;;;;;;5926482;40;20462;-70
2021/05/05 13:02:27;;;;;;;16.63;2.60;;;9.00;99.90;;;;;;5929270;40;20087;-71
2021/05/05 13:06:41;;;;;;;10.23;1.50;;;8.70;99.90;;;;;;5934520;40;20045;-71
2021/05/05 13:10:51;;;;;;;10.43;1.80;;;8.90;99.90;;;;;;5932437;40;20060;-72
2021/05/05 13:15:08;;;;;;;12.18;2.03;;;8.40;99.90;;;;;;5929737;40;20037;-73
2021/05/05 13:19:36;;;;;;;7.35;1.75;;;8.30;99.90;;;;;;5935381;40;20037;-73
2021/05/05 13:33:03;;;;;;;7.70;2.03;;;8.50;99.90;;;;;;5933191;40;20051;-72
2021/05/05 13:37:10;;;;;;;8.07;1.23;;;8.60;99.90;;;;;;5923784;40;20061;-72
2021/05/05 13:41:15;;;;;;;5.47;0.93;;;8.50;99.90;;;;;;5921866;40;20042;-74
2021/05/05 13:45:21;;;;;;;8.88;1.70;;;8.60;99.90;;;;;;5922671;40;20041;-73
2021/05/05 13:49:33;;;;;;;7.75;1.90;;;8.60;99.90;;;;;;5921129;40;20059;-72
2021/05/05 13:53:45;;;;;;;5.10;1.05;;;8.40;99.90;;;;;;5920770;40;20396;-72
2021/05/05 13:57:50;;;;;;;9.50;1.20;;;8.60;99.90;;;;;;5924094;40;20431;-73
2021/05/05 14:02:00;;;;;;;3.83;0.63;;;8.70;99.90;;;;;;5921214;40;20064;-73
2021/05/05 14:06:07;;;;;;;3.90;1.13;;;8.70;99.90;;;;;;5917621;40;20060;-74
2021/05/05 14:10:12;;;;;;;5.00;1.02;;;8.70;99.90;;;;;;5922833;40;20033;-74
2021/05/05 14:14:15;;;;;;;5.55;1.15;;;8.50;99.90;;;;;;5918965;40;20053;-73
2021/05/05 14:18:24;;;;;;;5.22;0.93;;;8.50;99.90;;;;;;5913418;40;20037;-72
2021/05/05 14:22:28;;;;;;;7.13;1.40;;;8.60;99.90;;;;;;5932905;40;20029;-70
2021/05/05 14:26:36;;;;;;;4.22;1.23;;;8.40;99.90;;;;;;5933411;40;20040;-72
2021/05/05 14:30:43;;;;;;;4.03;0.90;;;8.60;99.90;;;;;;5909412;40;20057;-71
2021/05/05 14:34:47;;;;;;;6.82;0.90;;;8.60;99.90;;;;;;5937450;40;20045;-72
2021/05/05 14:38:52;;;;;;;8.88;1.20;;;9.60;99.90;;;;;;5928313;40;20052;-72
2021/05/05 14:43:08;;;;;;;8.60;1.08;;;8.60;99.90;;;;;;5928852;40;20110;-72
2021/05/05 14:51:41;;;;;;;6.00;0.95;;;8.60;99.90;;;;;;5937821;40;20029;-73
2021/05/05 14:55:48;;;;;;;4.75;0.90;;;9.30;99.90;;;;;;5934800;40;20052;-72
2021/05/05 14:59:55;;;;;;;11.63;1.55;;;8.50;99.90;;;;;;5936844;40;20080;-74
2021/05/05 15:04:03;;;;;;;4.43;0.80;;;9.00;99.90;;;;;;5926248;40;20033;-71
2021/05/05 15:08:13;;;;;;;9.52;1.35;;;8.60;99.90;;;;;;5908301;40;20064;-71
2021/05/05 15:29:50;;;;;;;8.30;1.27;;;8.30;99.90;;;;;;5907982;40;20486;-73
2021/05/05 15:38:26;;;;;;;10.93;3.03;;;8.20;99.90;;;;;;5903765;40;20414;-73
2021/05/05 15:42:36;;;;;;;6.63;1.20;;;8.30;99.90;;;;;;5900878;40;21736;-72
2021/05/05 15:51:16;;;;;;;6.25;1.20;;;8.20;99.90;;;;;;5897335;40;20053;-72
2021/05/05 15:55:25;;;;;;;7.40;1.08;;;8.20;99.90;;;;;;5905500;40;20064;-72
2021/05/05 15:59:42;;;;;;;7.35;1.45;;;8.10;99.90;;;;;;5902325;40;20459;-72
2021/05/05 16:13:55;;;;;;;4.30;0.95;;;7.80;99.90;;;;;;5894933;40;20336;-72
2021/05/05 16:17:24;;;;;;;5.05;1.00;;;7.70;99.90;;;;;;5904799;40;20056;-72
2021/05/05 16:21:45;;;;;;;5.47;0.90;;;7.70;99.90;;;;;;5906409;40;20417;-72
2021/05/05 16:43:44;;;;;;;6.53;1.00;;;7.40;99.90;;;;;;5893208;40;21765;-72
2021/05/05 16:47:55;;;;;;;5.28;1.40;;;7.40;99.90;;;;;;5906633;40;20053;-71
2021/05/05 16:56:37;;;;;;;3.03;0.93;;;7.30;99.90;;;;;;5910388;40;20045;-72
2021/05/05 17:00:58;;;;;;;2.95;1.25;;;7.30;99.90;;;;;;5907741;40;20357;-72
2021/05/05 17:13:46;;;;;;;3.15;0.60;;;7.10;99.90;;;;;;5910046;40;20044;-72
2021/05/05 17:18:11;;;;;;;3.00;0.82;;;7.00;99.90;;;;;;5907597;40;20052;-71
2021/05/05 17:22:23;;;;;;;1.95;0.77;;;6.90;99.90;;;;;;5907026;40;20128;-72
2021/05/05 17:26:51;;;;;;;2.22;0.57;;;6.90;99.90;;;;;;5907360;40;20095;-72
2021/05/05 18:14:18;;;;;;;6.25;2.22;;;6.80;99.90;;;;;;5906390;40;20061;-72
2021/05/05 18:31:03;;;;;;;5.43;0.57;;;6.70;99.90;;;;;;5902999;40;20056;-72
2021/05/05 18:35:07;;;;;;;3.85;0.93;;;6.70;99.90;;;;;;5891752;40;20052;-74
2021/05/05 18:39:16;;;;;;;5.07;1.02;;;6.70;99.90;;;;;;5892679;40;20073;-72
2021/05/05 18:43:48;;;;;;;3.35;0.60;;;6.70;99.90;;;;;;5893703;40;20060;-73
2021/05/05 19:14:43;;;;;;;0.95;0.30;;;6.20;99.90;;;;;;5917691;40;20423;-75
2021/05/05 19:46:45;;;;;;;14.60;2.55;;;6.40;99.90;;;;;;5916888;40;20056;-75
2021/05/05 19:55:39;;;;;;;7.18;1.58;;;6.30;99.90;;;;;;5907761;40;20072;-76
2021/05/05 20:15:54;;;;;;;9.00;1.38;;;6.20;99.90;;;;;;5911328;40;20129;-76
2021/05/05 20:50:48;;;;;;;8.07;1.40;;;6.20;99.90;;;;;;5911042;40;20246;-75
2021/05/05 21:08:27;;;;;;;10.68;1.83;;;6.20;99.90;;;;;;5913668;40;20055;-76
2021/05/05 23:26:44;;;;;;;9.73;1.80;;;5.90;99.90;;;;;;5910805;40;20435;-73
